sensor_id;sensor_type;location;lat;lon;timestamp;P1;durP1;ratioP1;P2;durP2;ratioP2
43813;SDS011;29669;55.706;37.656;2023-06-26T00:26:39;21.60;;;12.07;;
43813;SDS011;29669;55.706;37.656;2023-06-26T00:37:26;30.23;;;12.18;;
43813;SDS011;29669;55.706;37.656;2023-06-26T00:40:55;28.50;;;13.57;;
43813;SDS011;29669;55.706;37.656;2023-06-26T00:43:22;29.60;;;12.55;;
43813;SDS011;29669;55.706;37.656;2023-06-26T00:45:50;30.75;;;12.75;;
43813;SDS011;29669;55.706;37.656;2023-06-26T00:48:19;34.67;;;12.88;;
43813;SDS011;29669;55.706;37.656;2023-06-26T00:50:47;26.55;;;13.25;;
43813;SDS011;29669;55.706;37.656;2023-06-26T00:53:15;32.95;;;13.95;;
43813;SDS011;29669;55.706;37.656;2023-06-26T00:55:43;28.17;;;13.95;;
43813;SDS011;29669;55.706;37.656;2023-06-26T00:58:11;26.48;;;13.68;;
43813;SDS011;29669;55.706;37.656;2023-06-26T01:00:39;25.38;;;15.10;;
43813;SDS011;29669;55.706;37.656;2023-06-26T01:03:08;27.00;;;15.18;;
43813;SDS011;29669;55.706;37.656;2023-06-26T01:05:36;26.10;;;14.25;;
43813;SDS011;29669;55.706;37.656;2023-06-26T01:08:05;31.48;;;15.02;;
43813;SDS011;29669;55.706;37.656;2023-06-26T01:10:35;29.77;;;14.98;;
43813;SDS011;29669;55.706;37.656;2023-06-26T01:13:03;26.92;;;14.50;;
43813;SDS011;29669;55.706;37.656;2023-06-26T01:15:31;21.30;;;13.73;;
43813;SDS011;29669;55.706;37.656;2023-06-26T01:17:59;27.13;;;13.80;;
43813;SDS011;29669;55.706;37.656;2023-06-26T01:20:37;32.28;;;15.23;;
43813;SDS011;29669;55.706;37.656;2023-06-26T01:25:41;23.83;;;14.38;;
43813;SDS011;29669;55.706;37.656;2023-06-26T01:28:35;26.10;;;14.35;;
43813;SDS011;29669;55.706;37.656;2023-06-26T01:31:06;28.42;;;15.88;;
43813;SDS011;29669;55.706;37.656;2023-06-26T01:33:34;25.90;;;15.50;;
43813;SDS011;29669;55.706;37.656;2023-06-26T01:36:03;28.73;;;15.90;;
43813;SDS011;29669;55.706;37.656;2023-06-26T01:38:31;28.05;;;14.32;;
43813;SDS011;29669;55.706;37.656;2023-06-26T01:40:59;23.00;;;15.30;;
43813;SDS011;29669;55.706;37.656;2023-06-26T01:55:09;25.05;;;15.02;;
43813;SDS011;29669;55.706;37.656;2023-06-26T01:57:57;29.05;;;15.30;;
43813;SDS011;29669;55.706;37.656;2023-06-26T02:00:26;26.13;;;14.90;;
43813;SDS011;29669;55.706;37.656;2023-06-26T02:02:55;27.08;;;14.68;;
43813;SDS011;29669;55.706;37.656;2023-06-26T02:05:23;31.50;;;15.40;;
43813;SDS011;29669;55.706;37.656;2023-06-26T02:07:51;30.50;;;16.05;;
43813;SDS011;29669;55.706;37.656;2023-06-26T02:10:19;24.90;;;13.93;;
43813;SDS011;29669;55.706;37.656;2023-06-26T02:12:46;32.63;;;14.02;;
43813;SDS011;29669;55.706;37.656;2023-06-26T02:15:15;30.00;;;14.75;;
43813;SDS011;29669;55.706;37.656;2023-06-26T02:17:43;30.05;;;15.15;;
43813;SDS011;29669;55.706;37.656;2023-06-26T02:20:15;33.17;;;14.23;;
43813;SDS011;29669;55.706;37.656;2023-06-26T02:22:43;34.83;;;17.05;;
43813;SDS011;29669;55.706;37.656;2023-06-26T02:25:12;37.72;;;16.52;;
43813;SDS011;29669;55.706;37.656;2023-06-26T02:27:40;31.55;;;16.02;;
43813;SDS011;29669;55.706;37.656;2023-06-26T02:30:09;42.15;;;17.02;;
43813;SDS011;29669;55.706;37.656;2023-06-26T02:32:37;35.22;;;18.33;;
43813;SDS011;29669;55.706;37.656;2023-06-26T02:35:06;32.63;;;17.30;;
43813;SDS011;29669;55.706;37.656;2023-06-26T02:37:34;37.28;;;19.63;;
43813;SDS011;29669;55.706;37.656;2023-06-26T02:42:39;40.53;;;18.05;;
43813;SDS011;29669;55.706;37.656;2023-06-26T02:45:07;41.45;;;18.70;;
43813;SDS011;29669;55.706;37.656;2023-06-26T02:47:36;30.10;;;18.63;;
43813;SDS011;29669;55.706;37.656;2023-06-26T02:50:09;33.45;;;18.50;;
43813;SDS011;29669;55.706;37.656;2023-06-26T02:55:45;34.05;;;18.08;;
43813;SDS011;29669;55.706;37.656;2023-06-26T02:58:15;33.70;;;17.63;;
43813;SDS011;29669;55.706;37.656;2023-06-26T03:00:44;34.53;;;18.95;;
43813;SDS011;29669;55.706;37.656;2023-06-26T03:03:15;36.47;;;19.75;;
43813;SDS011;29669;55.706;37.656;2023-06-26T03:05:43;30.35;;;18.48;;
43813;SDS011;29669;55.706;37.656;2023-06-26T03:08:12;42.08;;;19.90;;
43813;SDS011;29669;55.706;37.656;2023-06-26T03:10:40;44.97;;;20.05;;
43813;SDS011;29669;55.706;37.656;2023-06-26T03:13:08;46.33;;;23.00;;
43813;SDS011;29669;55.706;37.656;2023-06-26T03:15:36;38.33;;;21.52;;
43813;SDS011;29669;55.706;37.656;2023-06-26T03:18:05;56.05;;;22.85;;
43813;SDS011;29669;55.706;37.656;2023-06-26T03:20:33;47.40;;;22.95;;
43813;SDS011;29669;55.706;37.656;2023-06-26T03:23:01;45.22;;;24.30;;
43813;SDS011;29669;55.706;37.656;2023-06-26T03:25:29;47.47;;;23.15;;
43813;SDS011;29669;55.706;37.656;2023-06-26T03:28:08;40.08;;;23.63;;
43813;SDS011;29669;55.706;37.656;2023-06-26T03:30:36;44.65;;;23.60;;
43813;SDS011;29669;55.706;37.656;2023-06-26T03:33:05;43.88;;;25.05;;
43813;SDS011;29669;55.706;37.656;2023-06-26T03:35:33;48.38;;;25.55;;
43813;SDS011;29669;55.706;37.656;2023-06-26T03:38:01;53.22;;;25.60;;
43813;SDS011;29669;55.706;37.656;2023-06-26T03:40:32;50.00;;;26.52;;
43813;SDS011;29669;55.706;37.656;2023-06-26T03:43:01;46.83;;;25.67;;
43813;SDS011;29669;55.706;37.656;2023-06-26T03:45:36;51.85;;;25.83;;
43813;SDS011;29669;55.706;37.656;2023-06-26T03:48:04;46.88;;;25.50;;
43813;SDS011;29669;55.706;37.656;2023-06-26T03:50:32;56.30;;;25.52;;
43813;SDS011;29669;55.706;37.656;2023-06-26T03:52:59;46.65;;;24.42;;
43813;SDS011;29669;55.706;37.656;2023-06-26T03:55:27;63.90;;;25.80;;
43813;SDS011;29669;55.706;37.656;2023-06-26T03:57:55;54.67;;;23.77;;
43813;SDS011;29669;55.706;37.656;2023-06-26T04:00:23;43.75;;;23.73;;
43813;SDS011;29669;55.706;37.656;2023-06-26T04:02:50;47.83;;;22.35;;
43813;SDS011;29669;55.706;37.656;2023-06-26T04:05:19;45.67;;;21.05;;
43813;SDS011;29669;55.706;37.656;2023-06-26T04:07:49;33.17;;;19.13;;
43813;SDS011;29669;55.706;37.656;2023-06-26T04:10:19;28.90;;;17.85;;
43813;SDS011;29669;55.706;37.656;2023-06-26T04:12:48;41.55;;;18.45;;
43813;SDS011;29669;55.706;37.656;2023-06-26T04:15:16;29.63;;;17.52;;
43813;SDS011;29669;55.706;37.656;2023-06-26T04:17:43;24.05;;;15.70;;
43813;SDS011;29669;55.706;37.656;2023-06-26T04:20:12;26.35;;;14.65;;
43813;SDS011;29669;55.706;37.656;2023-06-26T04:22:40;32.42;;;15.07;;
43813;SDS011;29669;55.706;37.656;2023-06-26T04:25:08;24.98;;;15.00;;
43813;SDS011;29669;55.706;37.656;2023-06-26T04:27:36;27.10;;;15.32;;
43813;SDS011;29669;55.706;37.656;2023-06-26T04:30:07;25.25;;;14.05;;
43813;SDS011;29669;55.706;37.656;2023-06-26T04:32:35;31.08;;;13.93;;
43813;SDS011;29669;55.706;37.656;2023-06-26T04:35:03;24.55;;;12.00;;
43813;SDS011;29669;55.706;37.656;2023-06-26T04:37:31;22.10;;;10.98;;
43813;SDS011;29669;55.706;37.656;2023-06-26T04:40:01;24.42;;;11.60;;
43813;SDS011;29669;55.706;37.656;2023-06-26T04:42:31;31.48;;;12.60;;
43813;SDS011;29669;55.706;37.656;2023-06-26T04:44:59;21.35;;;10.80;;
43813;SDS011;29669;55.706;37.656;2023-06-26T04:47:32;18.92;;;10.45;;
43813;SDS011;29669;55.706;37.656;2023-06-26T04:50:00;23.40;;;10.15;;
43813;SDS011;29669;55.706;37.656;2023-06-26T04:52:30;19.60;;;9.85;;
43813;SDS011;29669;55.706;37.656;2023-06-26T04:54:58;15.98;;;9.65;;
43813;SDS011;29669;55.706;37.656;2023-06-26T04:57:26;16.00;;;9.27;;
43813;SDS011;29669;55.706;37.656;2023-06-26T04:59:53;16.30;;;9.43;;
43813;SDS011;29669;55.706;37.656;2023-06-26T05:02:33;16.15;;;10.55;;
43813;SDS011;29669;55.706;37.656;2023-06-26T05:05:05;14.10;;;10.00;;
43813;SDS011;29669;55.706;37.656;2023-06-26T05:11:34;18.85;;;9.30;;
43813;SDS011;29669;55.706;37.656;2023-06-26T05:14:15;17.10;;;9.98;;
43813;SDS011;29669;55.706;37.656;2023-06-26T05:17:03;27.88;;;9.68;;
43813;SDS011;29669;55.706;37.656;2023-06-26T05:20:15;19.75;;;9.70;;
43813;SDS011;29669;55.706;37.656;2023-06-26T05:22:43;15.68;;;8.35;;
43813;SDS011;29669;55.706;37.656;2023-06-26T05:25:11;14.85;;;9.48;;
43813;SDS011;29669;55.706;37.656;2023-06-26T05:27:42;15.85;;;10.75;;
43813;SDS011;29669;55.706;37.656;2023-06-26T05:30:10;14.63;;;8.95;;
43813;SDS011;29669;55.706;37.656;2023-06-26T05:32:39;13.70;;;8.52;;
43813;SDS011;29669;55.706;37.656;2023-06-26T05:35:10;16.15;;;8.45;;
43813;SDS011;29669;55.706;37.656;2023-06-26T05:56:36;13.52;;;7.68;;
43813;SDS011;29669;55.706;37.656;2023-06-26T05:59:03;10.45;;;6.68;;
43813;SDS011;29669;55.706;37.656;2023-06-26T06:01:32;11.55;;;6.80;;
43813;SDS011;29669;55.706;37.656;2023-06-26T06:04:03;10.65;;;6.63;;
43813;SDS011;29669;55.706;37.656;2023-06-26T06:06:31;9.65;;;7.25;;
43813;SDS011;29669;55.706;37.656;2023-06-26T06:08:59;10.88;;;6.13;;
43813;SDS011;29669;55.706;37.656;2023-06-26T06:11:27;13.20;;;6.50;;
43813;SDS011;29669;55.706;37.656;2023-06-26T06:13:54;11.15;;;6.40;;
43813;SDS011;29669;55.706;37.656;2023-06-26T06:16:22;10.15;;;6.40;;
43813;SDS011;29669;55.706;37.656;2023-06-26T06:18:50;13.77;;;7.45;;
43813;SDS011;29669;55.706;37.656;2023-06-26T06:21:17;10.63;;;6.25;;
43813;SDS011;29669;55.706;37.656;2023-06-26T06:23:47;8.40;;;5.93;;
43813;SDS011;29669;55.706;37.656;2023-06-26T06:26:15;10.70;;;6.22;;
43813;SDS011;29669;55.706;37.656;2023-06-26T06:28:42;8.75;;;5.78;;
43813;SDS011;29669;55.706;37.656;2023-06-26T06:31:10;10.05;;;6.10;;
43813;SDS011;29669;55.706;37.656;2023-06-26T06:33:38;11.52;;;5.88;;
43813;SDS011;29669;55.706;37.656;2023-06-26T06:36:06;10.93;;;6.25;;
43813;SDS011;29669;55.706;37.656;2023-06-26T06:38:36;11.63;;;6.50;;
43813;SDS011;29669;55.706;37.656;2023-06-26T06:41:04;8.77;;;5.72;;
43813;SDS011;29669;55.706;37.656;2023-06-26T06:43:34;16.25;;;8.00;;
43813;SDS011;29669;55.706;37.656;2023-06-26T06:46:03;11.13;;;7.03;;
43813;SDS011;29669;55.706;37.656;2023-06-26T06:48:32;8.20;;;5.75;;
43813;SDS011;29669;55.706;37.656;2023-06-26T06:51:00;14.43;;;7.70;;
43813;SDS011;29669;55.706;37.656;2023-06-26T06:53:28;9.75;;;5.75;;
43813;SDS011;29669;55.706;37.656;2023-06-26T06:55:56;9.85;;;6.05;;
43813;SDS011;29669;55.706;37.656;2023-06-26T06:58:23;10.65;;;6.03;;
43813;SDS011;29669;55.706;37.656;2023-06-26T07:00:51;14.85;;;6.88;;
43813;SDS011;29669;55.706;37.656;2023-06-26T07:03:19;8.15;;;5.78;;
43813;SDS011;29669;55.706;37.656;2023-06-26T07:05:48;7.20;;;5.53;;
43813;SDS011;29669;55.706;37.656;2023-06-26T07:08:16;6.72;;;5.20;;
43813;SDS011;29669;55.706;37.656;2023-06-26T07:10:44;6.03;;;5.07;;
43813;SDS011;29669;55.706;37.656;2023-06-26T07:13:12;7.07;;;5.53;;
43813;SDS011;29669;55.706;37.656;2023-06-26T07:15:40;7.85;;;5.38;;
43813;SDS011;29669;55.706;37.656;2023-06-26T07:18:07;12.00;;;5.78;;
43813;SDS011;29669;55.706;37.656;2023-06-26T07:20:36;7.68;;;5.78;;
43813;SDS011;29669;55.706;37.656;2023-06-26T07:23:04;10.00;;;5.55;;
43813;SDS011;29669;55.706;37.656;2023-06-26T07:25:31;11.93;;;6.28;;
43813;SDS011;29669;55.706;37.656;2023-06-26T07:27:59;8.52;;;5.65;;
43813;SDS011;29669;55.706;37.656;2023-06-26T07:30:27;9.18;;;6.13;;
43813;SDS011;29669;55.706;37.656;2023-06-26T07:32:55;13.90;;;6.32;;
43813;SDS011;29669;55.706;37.656;2023-06-26T07:35:23;11.05;;;6.05;;
43813;SDS011;29669;55.706;37.656;2023-06-26T07:37:52;12.98;;;6.10;;
43813;SDS011;29669;55.706;37.656;2023-06-26T07:40:20;13.52;;;6.47;;
43813;SDS011;29669;55.706;37.656;2023-06-26T07:42:48;13.65;;;6.55;;
43813;SDS011;29669;55.706;37.656;2023-06-26T07:45:16;11.25;;;6.30;;
43813;SDS011;29669;55.706;37.656;2023-06-26T07:47:44;23.98;;;7.15;;
43813;SDS011;29669;55.706;37.656;2023-06-26T07:50:11;16.00;;;7.90;;
43813;SDS011;29669;55.706;37.656;2023-06-26T07:52:39;15.30;;;7.65;;
43813;SDS011;29669;55.706;37.656;2023-06-26T07:55:07;11.80;;;6.57;;
43813;SDS011;29669;55.706;37.656;2023-06-26T07:57:35;8.98;;;5.72;;
43813;SDS011;29669;55.706;37.656;2023-06-26T08:00:03;9.95;;;6.93;;
43813;SDS011;29669;55.706;37.656;2023-06-26T08:02:43;18.40;;;7.55;;
43813;SDS011;29669;55.706;37.656;2023-06-26T08:05:10;7.65;;;6.40;;
43813;SDS011;29669;55.706;37.656;2023-06-26T08:07:39;19.15;;;7.95;;
43813;SDS011;29669;55.706;37.656;2023-06-26T08:10:06;11.02;;;7.38;;
43813;SDS011;29669;55.706;37.656;2023-06-26T08:12:34;10.23;;;6.10;;
43813;SDS011;29669;55.706;37.656;2023-06-26T08:15:04;15.50;;;6.50;;
43813;SDS011;29669;55.706;37.656;2023-06-26T08:17:32;8.75;;;6.55;;
43813;SDS011;29669;55.706;37.656;2023-06-26T08:20:01;10.77;;;6.40;;
43813;SDS011;29669;55.706;37.656;2023-06-26T08:22:31;16.50;;;6.68;;
43813;SDS011;29669;55.706;37.656;2023-06-26T08:24:59;14.35;;;7.32;;
43813;SDS011;29669;55.706;37.656;2023-06-26T08:27:27;11.63;;;6.68;;
43813;SDS011;29669;55.706;37.656;2023-06-26T08:29:54;14.93;;;6.57;;
43813;SDS011;29669;55.706;37.656;2023-06-26T08:32:22;8.70;;;5.82;;
43813;SDS011;29669;55.706;37.656;2023-06-26T08:34:50;12.20;;;6.43;;
43813;SDS011;29669;55.706;37.656;2023-06-26T08:37:18;10.10;;;6.45;;
43813;SDS011;29669;55.706;37.656;2023-06-26T08:39:47;9.07;;;6.35;;
43813;SDS011;29669;55.706;37.656;2023-06-26T08:42:16;11.38;;;6.55;;
43813;SDS011;29669;55.706;37.656;2023-06-26T08:44:44;9.43;;;6.53;;
43813;SDS011;29669;55.706;37.656;2023-06-26T08:47:33;9.95;;;6.32;;
43813;SDS011;29669;55.706;37.656;2023-06-26T08:50:12;21.80;;;7.93;;
43813;SDS011;29669;55.706;37.656;2023-06-26T08:55:28;9.23;;;6.20;;
43813;SDS011;29669;55.706;37.656;2023-06-26T08:57:56;9.95;;;6.78;;
43813;SDS011;29669;55.706;37.656;2023-06-26T09:00:24;7.88;;;6.38;;
43813;SDS011;29669;55.706;37.656;2023-06-26T09:02:53;8.60;;;6.43;;
43813;SDS011;29669;55.706;37.656;2023-06-26T09:05:21;11.45;;;7.07;;
43813;SDS011;29669;55.706;37.656;2023-06-26T09:07:49;12.57;;;6.30;;
43813;SDS011;29669;55.706;37.656;2023-06-26T09:10:17;10.80;;;6.13;;
43813;SDS011;29669;55.706;37.656;2023-06-26T09:12:46;9.52;;;6.63;;
43813;SDS011;29669;55.706;37.656;2023-06-26T09:15:15;9.65;;;5.82;;
43813;SDS011;29669;55.706;37.656;2023-06-26T09:17:47;13.02;;;7.10;;
43813;SDS011;29669;55.706;37.656;2023-06-26T09:20:16;11.93;;;7.03;;
43813;SDS011;29669;55.706;37.656;2023-06-26T09:22:43;7.32;;;5.43;;
43813;SDS011;29669;55.706;37.656;2023-06-26T09:25:18;8.43;;;6.10;;
43813;SDS011;29669;55.706;37.656;2023-06-26T09:27:46;11.18;;;5.63;;
43813;SDS011;29669;55.706;37.656;2023-06-26T09:30:16;18.48;;;7.32;;
43813;SDS011;29669;55.706;37.656;2023-06-26T09:32:45;8.60;;;5.70;;
43813;SDS011;29669;55.706;37.656;2023-06-26T09:35:14;14.05;;;7.00;;
43813;SDS011;29669;55.706;37.656;2023-06-26T09:37:42;7.40;;;5.38;;
43813;SDS011;29669;55.706;37.656;2023-06-26T09:40:11;5.80;;;5.20;;
43813;SDS011;29669;55.706;37.656;2023-06-26T09:42:38;10.88;;;5.47;;
43813;SDS011;29669;55.706;37.656;2023-06-26T09:45:06;12.02;;;5.93;;
43813;SDS011;29669;55.706;37.656;2023-06-26T09:47:35;11.80;;;5.75;;
43813;SDS011;29669;55.706;37.656;2023-06-26T09:50:03;7.63;;;5.88;;
43813;SDS011;29669;55.706;37.656;2023-06-26T09:52:32;8.63;;;6.25;;
43813;SDS011;29669;55.706;37.656;2023-06-26T09:55:08;8.85;;;7.25;;
43813;SDS011;29669;55.706;37.656;2023-06-26T09:57:37;8.55;;;5.93;;
43813;SDS011;29669;55.706;37.656;2023-06-26T10:00:05;7.97;;;4.88;;
43813;SDS011;29669;55.706;37.656;2023-06-26T10:02:41;7.15;;;4.95;;
43813;SDS011;29669;55.706;37.656;2023-06-26T10:05:09;8.93;;;5.07;;
43813;SDS011;29669;55.706;37.656;2023-06-26T10:07:37;5.47;;;4.65;;
43813;SDS011;29669;55.706;37.656;2023-06-26T10:10:07;9.40;;;5.57;;
43813;SDS011;29669;55.706;37.656;2023-06-26T10:12:37;6.63;;;5.28;;
43813;SDS011;29669;55.706;37.656;2023-06-26T10:15:05;6.78;;;5.03;;
43813;SDS011;29669;55.706;37.656;2023-06-26T10:17:40;7.00;;;4.85;;
43813;SDS011;29669;55.706;37.656;2023-06-26T10:20:11;13.70;;;5.38;;
43813;SDS011;29669;55.706;37.656;2023-06-26T10:22:44;7.85;;;5.15;;
43813;SDS011;29669;55.706;37.656;2023-06-26T10:25:14;11.77;;;6.63;;
43813;SDS011;29669;55.706;37.656;2023-06-26T10:27:56;15.48;;;5.78;;
43813;SDS011;29669;55.706;37.656;2023-06-26T10:30:33;9.10;;;5.53;;
43813;SDS011;29669;55.706;37.656;2023-06-26T10:33:03;8.32;;;5.63;;
43813;SDS011;29669;55.706;37.656;2023-06-26T10:35:31;7.53;;;5.55;;
43813;SDS011;29669;55.706;37.656;2023-06-26T10:38:02;17.00;;;6.18;;
43813;SDS011;29669;55.706;37.656;2023-06-26T10:40:41;10.00;;;6.22;;
43813;SDS011;29669;55.706;37.656;2023-06-26T10:43:10;12.10;;;6.40;;
43813;SDS011;29669;55.706;37.656;2023-06-26T10:45:43;10.07;;;5.32;;
43813;SDS011;29669;55.706;37.656;2023-06-26T10:48:16;9.65;;;5.70;;
43813;SDS011;29669;55.706;37.656;2023-06-26T10:50:46;7.88;;;5.43;;
43813;SDS011;29669;55.706;37.656;2023-06-26T11:01:25;8.02;;;5.45;;
43813;SDS011;29669;55.706;37.656;2023-06-26T11:04:00;10.15;;;5.35;;
43813;SDS011;29669;55.706;37.656;2023-06-26T11:06:35;10.30;;;6.50;;
43813;SDS011;29669;55.706;37.656;2023-06-26T11:14:22;13.23;;;6.05;;
43813;SDS011;29669;55.706;37.656;2023-06-26T11:16:55;10.65;;;7.05;;
43813;SDS011;29669;55.706;37.656;2023-06-26T11:19:25;8.55;;;6.32;;
43813;SDS011;29669;55.706;37.656;2023-06-26T11:21:58;8.63;;;6.15;;
43813;SDS011;29669;55.706;37.656;2023-06-26T11:24:28;7.88;;;6.05;;
43813;SDS011;29669;55.706;37.656;2023-06-26T11:26:59;14.45;;;6.35;;
43813;SDS011;29669;55.706;37.656;2023-06-26T11:29:28;12.10;;;6.38;;
43813;SDS011;29669;55.706;37.656;2023-06-26T11:31:59;9.88;;;6.78;;
43813;SDS011;29669;55.706;37.656;2023-06-26T11:34:32;8.75;;;6.10;;
43813;SDS011;29669;55.706;37.656;2023-06-26T11:37:00;9.40;;;5.65;;
43813;SDS011;29669;55.706;37.656;2023-06-26T11:39:28;8.32;;;5.65;;
43813;SDS011;29669;55.706;37.656;2023-06-26T11:41:56;14.05;;;6.57;;
43813;SDS011;29669;55.706;37.656;2023-06-26T11:44:29;7.25;;;6.57;;
43813;SDS011;29669;55.706;37.656;2023-06-26T11:46:57;10.32;;;6.15;;
43813;SDS011;29669;55.706;37.656;2023-06-26T11:49:25;10.60;;;6.07;;
43813;SDS011;29669;55.706;37.656;2023-06-26T11:51:55;10.52;;;6.63;;
43813;SDS011;29669;55.706;37.656;2023-06-26T11:54:24;9.07;;;6.75;;
43813;SDS011;29669;55.706;37.656;2023-06-26T11:56:56;9.60;;;6.05;;
43813;SDS011;29669;55.706;37.656;2023-06-26T12:02:10;8.30;;;5.80;;
43813;SDS011;29669;55.706;37.656;2023-06-26T12:04:43;8.02;;;5.88;;
43813;SDS011;29669;55.706;37.656;2023-06-26T12:07:12;6.85;;;5.75;;
43813;SDS011;29669;55.706;37.656;2023-06-26T12:09:42;8.23;;;5.97;;
43813;SDS011;29669;55.706;37.656;2023-06-26T12:12:11;19.50;;;6.80;;
43813;SDS011;29669;55.706;37.656;2023-06-26T12:14:42;10.52;;;5.97;;
43813;SDS011;29669;55.706;37.656;2023-06-26T12:17:10;11.73;;;6.30;;
43813;SDS011;29669;55.706;37.656;2023-06-26T12:19:42;12.25;;;7.15;;
43813;SDS011;29669;55.706;37.656;2023-06-26T12:22:12;10.30;;;6.15;;
43813;SDS011;29669;55.706;37.656;2023-06-26T12:24:39;8.07;;;6.00;;
43813;SDS011;29669;55.706;37.656;2023-06-26T12:27:09;9.13;;;6.00;;
43813;SDS011;29669;55.706;37.656;2023-06-26T12:29:38;8.07;;;5.95;;
43813;SDS011;29669;55.706;37.656;2023-06-26T12:32:09;8.82;;;5.80;;
43813;SDS011;29669;55.706;37.656;2023-06-26T12:34:38;6.93;;;5.35;;
43813;SDS011;29669;55.706;37.656;2023-06-26T12:37:10;11.23;;;5.85;;
43813;SDS011;29669;55.706;37.656;2023-06-26T12:39:45;9.20;;;6.80;;
43813;SDS011;29669;55.706;37.656;2023-06-26T12:42:15;9.50;;;6.30;;
43813;SDS011;29669;55.706;37.656;2023-06-26T12:44:45;12.32;;;5.38;;
43813;SDS011;29669;55.706;37.656;2023-06-26T12:47:13;9.18;;;6.32;;
43813;SDS011;29669;55.706;37.656;2023-06-26T12:49:43;8.77;;;5.80;;
43813;SDS011;29669;55.706;37.656;2023-06-26T12:52:13;9.15;;;5.47;;
43813;SDS011;29669;55.706;37.656;2023-06-26T12:54:42;11.07;;;6.13;;
43813;SDS011;29669;55.706;37.656;2023-06-26T12:57:11;11.02;;;7.07;;
43813;SDS011;29669;55.706;37.656;2023-06-26T12:59:42;6.82;;;5.45;;
43813;SDS011;29669;55.706;37.656;2023-06-26T13:02:11;5.97;;;5.35;;
43813;SDS011;29669;55.706;37.656;2023-06-26T13:04:39;13.38;;;7.10;;
43813;SDS011;29669;55.706;37.656;2023-06-26T13:07:08;7.68;;;5.43;;
43813;SDS011;29669;55.706;37.656;2023-06-26T13:09:42;9.63;;;5.32;;
43813;SDS011;29669;55.706;37.656;2023-06-26T13:12:16;7.22;;;5.30;;
43813;SDS011;29669;55.706;37.656;2023-06-26T13:14:43;7.70;;;5.72;;
43813;SDS011;29669;55.706;37.656;2023-06-26T13:17:11;6.35;;;5.20;;
43813;SDS011;29669;55.706;37.656;2023-06-26T13:19:40;8.15;;;5.55;;
43813;SDS011;29669;55.706;37.656;2023-06-26T13:22:07;12.60;;;5.80;;
43813;SDS011;29669;55.706;37.656;2023-06-26T13:24:35;8.20;;;5.90;;
43813;SDS011;29669;55.706;37.656;2023-06-26T13:27:03;9.38;;;5.35;;
43813;SDS011;29669;55.706;37.656;2023-06-26T13:29:31;10.63;;;5.80;;
43813;SDS011;29669;55.706;37.656;2023-06-26T13:31:59;8.55;;;5.93;;
43813;SDS011;29669;55.706;37.656;2023-06-26T13:34:28;15.80;;;6.07;;
43813;SDS011;29669;55.706;37.656;2023-06-26T13:36:56;9.23;;;5.65;;
43813;SDS011;29669;55.706;37.656;2023-06-26T13:39:30;11.85;;;6.22;;
43813;SDS011;29669;55.706;37.656;2023-06-26T13:41:58;11.18;;;6.20;;
43813;SDS011;29669;55.706;37.656;2023-06-26T13:44:26;7.65;;;5.40;;
43813;SDS011;29669;55.706;37.656;2023-06-26T13:46:59;8.98;;;5.47;;
43813;SDS011;29669;55.706;37.656;2023-06-26T13:49:27;15.55;;;6.03;;
43813;SDS011;29669;55.706;37.656;2023-06-26T13:51:55;7.82;;;5.25;;
43813;SDS011;29669;55.706;37.656;2023-06-26T13:54:23;8.15;;;5.20;;
43813;SDS011;29669;55.706;37.656;2023-06-26T13:56:50;12.50;;;6.15;;
43813;SDS011;29669;55.706;37.656;2023-06-26T13:59:18;6.13;;;5.28;;
43813;SDS011;29669;55.706;37.656;2023-06-26T14:01:48;6.68;;;5.00;;
43813;SDS011;29669;55.706;37.656;2023-06-26T14:04:16;8.90;;;5.28;;
43813;SDS011;29669;55.706;37.656;2023-06-26T14:06:44;8.63;;;5.18;;
43813;SDS011;29669;55.706;37.656;2023-06-26T14:09:12;9.10;;;4.97;;
43813;SDS011;29669;55.706;37.656;2023-06-26T14:11:40;7.20;;;5.22;;
43813;SDS011;29669;55.706;37.656;2023-06-26T14:14:08;8.23;;;4.75;;
43813;SDS011;29669;55.706;37.656;2023-06-26T14:16:36;5.95;;;5.25;;
43813;SDS011;29669;55.706;37.656;2023-06-26T14:19:05;6.18;;;4.90;;
43813;SDS011;29669;55.706;37.656;2023-06-26T14:21:37;5.53;;;4.90;;
43813;SDS011;29669;55.706;37.656;2023-06-26T14:24:05;7.50;;;6.13;;
43813;SDS011;29669;55.706;37.656;2023-06-26T14:26:33;7.35;;;4.45;;
43813;SDS011;29669;55.706;37.656;2023-06-26T14:29:01;4.90;;;4.28;;
43813;SDS011;29669;55.706;37.656;2023-06-26T14:31:30;7.82;;;5.32;;
43813;SDS011;29669;55.706;37.656;2023-06-26T14:33:58;8.32;;;5.70;;
43813;SDS011;29669;55.706;37.656;2023-06-26T14:36:27;10.70;;;5.15;;
43813;SDS011;29669;55.706;37.656;2023-06-26T14:38:55;8.00;;;5.10;;
43813;SDS011;29669;55.706;37.656;2023-06-26T14:41:32;8.10;;;5.00;;
43813;SDS011;29669;55.706;37.656;2023-06-26T14:44:00;14.05;;;7.97;;
43813;SDS011;29669;55.706;37.656;2023-06-26T14:46:28;6.10;;;4.65;;
43813;SDS011;29669;55.706;37.656;2023-06-26T14:48:57;8.00;;;6.35;;
43813;SDS011;29669;55.706;37.656;2023-06-26T14:51:27;5.60;;;4.93;;
43813;SDS011;29669;55.706;37.656;2023-06-26T14:53:55;7.85;;;5.47;;
43813;SDS011;29669;55.706;37.656;2023-06-26T14:57:03;6.38;;;4.82;;
43813;SDS011;29669;55.706;37.656;2023-06-26T14:59:44;8.35;;;6.10;;
43813;SDS011;29669;55.706;37.656;2023-06-26T15:02:18;10.32;;;4.97;;
43813;SDS011;29669;55.706;37.656;2023-06-26T15:04:57;8.48;;;5.03;;
43813;SDS011;29669;55.706;37.656;2023-06-26T15:07:29;10.60;;;5.57;;
43813;SDS011;29669;55.706;37.656;2023-06-26T15:09:57;11.00;;;5.70;;
43813;SDS011;29669;55.706;37.656;2023-06-26T15:12:25;9.88;;;5.82;;
43813;SDS011;29669;55.706;37.656;2023-06-26T15:14:54;6.68;;;5.40;;
43813;SDS011;29669;55.706;37.656;2023-06-26T15:17:23;5.95;;;4.90;;
43813;SDS011;29669;55.706;37.656;2023-06-26T15:19:51;7.55;;;5.07;;
43813;SDS011;29669;55.706;37.656;2023-06-26T15:22:21;10.00;;;5.10;;
43813;SDS011;29669;55.706;37.656;2023-06-26T15:24:50;12.55;;;6.72;;
43813;SDS011;29669;55.706;37.656;2023-06-26T15:27:18;10.05;;;6.28;;
43813;SDS011;29669;55.706;37.656;2023-06-26T15:29:46;12.55;;;6.05;;
43813;SDS011;29669;55.706;37.656;2023-06-26T15:32:14;15.95;;;5.13;;
43813;SDS011;29669;55.706;37.656;2023-06-26T15:34:44;15.50;;;5.38;;
43813;SDS011;29669;55.706;37.656;2023-06-26T15:37:12;10.02;;;5.28;;
43813;SDS011;29669;55.706;37.656;2023-06-26T15:39:41;15.25;;;5.20;;
43813;SDS011;29669;55.706;37.656;2023-06-26T15:42:10;10.38;;;5.00;;
43813;SDS011;29669;55.706;37.656;2023-06-26T15:44:38;16.67;;;5.13;;
43813;SDS011;29669;55.706;37.656;2023-06-26T15:47:06;11.50;;;4.85;;
43813;SDS011;29669;55.706;37.656;2023-06-26T15:49:34;14.23;;;4.78;;
43813;SDS011;29669;55.706;37.656;2023-06-26T15:52:02;11.25;;;5.10;;
43813;SDS011;29669;55.706;37.656;2023-06-26T15:54:30;10.68;;;4.95;;
43813;SDS011;29669;55.706;37.656;2023-06-26T15:57:00;10.00;;;5.20;;
43813;SDS011;29669;55.706;37.656;2023-06-26T15:59:28;9.38;;;4.93;;
43813;SDS011;29669;55.706;37.656;2023-06-26T16:01:56;13.38;;;5.13;;
43813;SDS011;29669;55.706;37.656;2023-06-26T16:04:27;10.68;;;4.97;;
43813;SDS011;29669;55.706;37.656;2023-06-26T16:06:58;7.63;;;4.63;;
43813;SDS011;29669;55.706;37.656;2023-06-26T16:09:26;10.77;;;4.72;;
43813;SDS011;29669;55.706;37.656;2023-06-26T16:11:56;9.13;;;4.10;;
43813;SDS011;29669;55.706;37.656;2023-06-26T16:14:24;19.48;;;4.75;;